sensor_id;sensor_type;location;lat;lon;timestamp;temperature;humidity
10312;DHT22;5201;48.776;9.128;2023-07-09T00:00:54;24.60;92.70
10312;DHT22;5201;48.776;9.128;2023-07-09T00:03:20;24.60;92.70
10312;DHT22;5201;48.776;9.128;2023-07-09T00:05:48;24.50;93.50
10312;DHT22;5201;48.776;9.128;2023-07-09T00:08:30;24.50;93.80
10312;DHT22;5201;48.776;9.128;2023-07-09T00:10:57;24.40;93.70
10312;DHT22;5201;48.776;9.128;2023-07-09T00:13:24;24.40;93.70
10312;DHT22;5201;48.776;9.128;2023-07-09T00:15:50;24.40;93.80
10312;DHT22;5201;48.776;9.128;2023-07-09T00:18:17;24.30;93.50
10312;DHT22;5201;48.776;9.128;2023-07-09T00:20:43;24.30;93.40
10312;DHT22;5201;48.776;9.128;2023-07-09T00:23:09;24.30;93.10
10312;DHT22;5201;48.776;9.128;2023-07-09T00:25:39;24.30;92.80
10312;DHT22;5201;48.776;9.128;2023-07-09T00:28:13;24.30;92.80
10312;DHT22;5201;48.776;9.128;2023-07-09T00:30:39;24.20;92.80
10312;DHT22;5201;48.776;9.128;2023-07-09T00:33:04;24.20;93.90
10312;DHT22;5201;48.776;9.128;2023-07-09T00:35:30;24.20;93.70
10312;DHT22;5201;48.776;9.128;2023-07-09T00:37:56;24.20;93.80
10312;DHT22;5201;48.776;9.128;2023-07-09T00:40:26;24.10;93.70
10312;DHT22;5201;48.776;9.128;2023-07-09T00:42:52;24.10;93.60
10312;DHT22;5201;48.776;9.128;2023-07-09T00:45:24;24.00;93.20
10312;DHT22;5201;48.776;9.128;2023-07-09T00:48:09;24.00;93.30
10312;DHT22;5201;48.776;9.128;2023-07-09T00:50:51;24.00;93.50
10312;DHT22;5201;48.776;9.128;2023-07-09T00:53:23;24.00;93.50
10312;DHT22;5201;48.776;9.128;2023-07-09T00:55:58;23.90;93.60
10312;DHT22;5201;48.776;9.128;2023-07-09T00:58:25;23.90;93.50
10312;DHT22;5201;48.776;9.128;2023-07-09T01:00:55;23.90;94.00
10312;DHT22;5201;48.776;9.128;2023-07-09T01:03:28;23.90;93.80
10312;DHT22;5201;48.776;9.128;2023-07-09T01:05:55;23.90;93.50
10312;DHT22;5201;48.776;9.128;2023-07-09T01:08:24;23.90;93.30
10312;DHT22;5201;48.776;9.128;2023-07-09T01:10:50;23.80;93.40
10312;DHT22;5201;48.776;9.128;2023-07-09T01:13:17;23.80;93.60
10312;DHT22;5201;48.776;9.128;2023-07-09T01:15:46;23.80;94.50
10312;DHT22;5201;48.776;9.128;2023-07-09T01:18:12;23.70;94.40
10312;DHT22;5201;48.776;9.128;2023-07-09T01:20:40;23.70;94.40
10312;DHT22;5201;48.776;9.128;2023-07-09T01:23:06;23.70;94.30
10312;DHT22;5201;48.776;9.128;2023-07-09T01:25:33;24.00;94.20
10312;DHT22;5201;48.776;9.128;2023-07-09T01:27:59;23.70;93.80
10312;DHT22;5201;48.776;9.128;2023-07-09T01:30:36;23.70;94.00
10312;DHT22;5201;48.776;9.128;2023-07-09T01:33:02;23.60;94.20
10312;DHT22;5201;48.776;9.128;2023-07-09T01:35:30;23.90;94.40
10312;DHT22;5201;48.776;9.128;2023-07-09T01:37:57;23.60;93.80
10312;DHT22;5201;48.776;9.128;2023-07-09T01:40:25;23.70;93.80
10312;DHT22;5201;48.776;9.128;2023-07-09T01:42:53;23.60;94.20
10312;DHT22;5201;48.776;9.128;2023-07-09T01:45:21;23.50;94.40
10312;DHT22;5201;48.776;9.128;2023-07-09T01:47:47;23.50;94.30
10312;DHT22;5201;48.776;9.128;2023-07-09T01:50:13;23.50;94.10
10312;DHT22;5201;48.776;9.128;2023-07-09T01:52:42;23.40;94.60
10312;DHT22;5201;48.776;9.128;2023-07-09T01:55:12;23.40;94.30
10312;DHT22;5201;48.776;9.128;2023-07-09T01:57:39;23.40;93.90
10312;DHT22;5201;48.776;9.128;2023-07-09T02:00:12;23.40;93.80
10312;DHT22;5201;48.776;9.128;2023-07-09T02:02:43;23.40;93.70
10312;DHT22;5201;48.776;9.128;2023-07-09T02:05:10;23.40;93.90
10312;DHT22;5201;48.776;9.128;2023-07-09T02:07:36;23.40;94.70
10312;DHT22;5201;48.776;9.128;2023-07-09T02:10:02;23.40;94.30
10312;DHT22;5201;48.776;9.128;2023-07-09T02:12:28;23.40;94.00
10312;DHT22;5201;48.776;9.128;2023-07-09T02:14:53;23.40;94.20
10312;DHT22;5201;48.776;9.128;2023-07-09T02:17:19;23.30;95.10
10312;DHT22;5201;48.776;9.128;2023-07-09T02:19:45;23.30;94.80
10312;DHT22;5201;48.776;9.128;2023-07-09T02:22:11;23.30;94.90
10312;DHT22;5201;48.776;9.128;2023-07-09T02:24:37;23.30;94.70
10312;DHT22;5201;48.776;9.128;2023-07-09T02:27:05;23.20;94.50
10312;DHT22;5201;48.776;9.128;2023-07-09T02:29:32;23.20;94.50
10312;DHT22;5201;48.776;9.128;2023-07-09T02:31:59;23.10;94.90
10312;DHT22;5201;48.776;9.128;2023-07-09T02:34:27;23.10;95.10
10312;DHT22;5201;48.776;9.128;2023-07-09T02:36:54;23.20;95.40
10312;DHT22;5201;48.776;9.128;2023-07-09T02:39:20;23.00;95.30
10312;DHT22;5201;48.776;9.128;2023-07-09T02:41:46;23.20;95.20
10312;DHT22;5201;48.776;9.128;2023-07-09T02:44:11;23.00;95.20
10312;DHT22;5201;48.776;9.128;2023-07-09T02:46:37;23.00;95.30
10312;DHT22;5201;48.776;9.128;2023-07-09T02:49:04;23.00;95.40
10312;DHT22;5201;48.776;9.128;2023-07-09T02:51:30;23.00;95.50
10312;DHT22;5201;48.776;9.128;2023-07-09T02:53:57;22.90;95.30
10312;DHT22;5201;48.776;9.128;2023-07-09T02:56:23;22.90;95.30
10312;DHT22;5201;48.776;9.128;2023-07-09T02:58:50;23.00;95.00
10312;DHT22;5201;48.776;9.128;2023-07-09T03:01:16;23.00;95.00
10312;DHT22;5201;48.776;9.128;2023-07-09T03:03:41;23.00;94.80
10312;DHT22;5201;48.776;9.128;2023-07-09T03:06:07;23.00;95.00
10312;DHT22;5201;48.776;9.128;2023-07-09T03:08:33;23.00;95.00
10312;DHT22;5201;48.776;9.128;2023-07-09T03:11:02;22.90;95.00
10312;DHT22;5201;48.776;9.128;2023-07-09T03:13:33;23.00;94.90
10312;DHT22;5201;48.776;9.128;2023-07-09T03:15:58;22.90;95.50
10312;DHT22;5201;48.776;9.128;2023-07-09T03:18:24;22.90;95.90
10312;DHT22;5201;48.776;9.128;2023-07-09T03:20:50;22.90;95.60
10312;DHT22;5201;48.776;9.128;2023-07-09T03:23:16;22.90;95.00
10312;DHT22;5201;48.776;9.128;2023-07-09T03:25:43;22.90;95.20
10312;DHT22;5201;48.776;9.128;2023-07-09T03:28:09;22.80;95.30
10312;DHT22;5201;48.776;9.128;2023-07-09T03:30:35;22.80;95.50
10312;DHT22;5201;48.776;9.128;2023-07-09T03:33:04;22.80;95.50
10312;DHT22;5201;48.776;9.128;2023-07-09T03:35:30;23.00;96.00
10312;DHT22;5201;48.776;9.128;2023-07-09T03:37:55;22.80;96.20
10312;DHT22;5201;48.776;9.128;2023-07-09T03:40:22;22.80;96.40
10312;DHT22;5201;48.776;9.128;2023-07-09T03:42:48;22.80;96.30
10312;DHT22;5201;48.776;9.128;2023-07-09T03:45:14;22.80;96.20
10312;DHT22;5201;48.776;9.128;2023-07-09T03:47:39;22.80;96.20
10312;DHT22;5201;48.776;9.128;2023-07-09T03:50:07;22.70;96.00
10312;DHT22;5201;48.776;9.128;2023-07-09T03:52:33;22.70;95.80
10312;DHT22;5201;48.776;9.128;2023-07-09T03:54:59;22.90;96.20
10312;DHT22;5201;48.776;9.128;2023-07-09T03:57:26;22.80;96.60
10312;DHT22;5201;48.776;9.128;2023-07-09T03:59:52;22.80;96.60
10312;DHT22;5201;48.776;9.128;2023-07-09T04:02:18;23.00;96.90
10312;DHT22;5201;48.776;9.128;2023-07-09T04:04:43;23.00;96.50
10312;DHT22;5201;48.776;9.128;2023-07-09T04:07:09;23.10;95.30
10312;DHT22;5201;48.776;9.128;2023-07-09T04:09:35;23.10;95.40
10312;DHT22;5201;48.776;9.128;2023-07-09T04:12:00;23.30;96.10
10312;DHT22;5201;48.776;9.128;2023-07-09T04:14:28;23.60;95.80
10312;DHT22;5201;48.776;9.128;2023-07-09T04:16:54;23.80;95.90
10312;DHT22;5201;48.776;9.128;2023-07-09T04:19:20;24.00;95.30
10312;DHT22;5201;48.776;9.128;2023-07-09T04:21:46;24.30;95.60
10312;DHT22;5201;48.776;9.128;2023-07-09T04:24:16;24.50;95.30
10312;DHT22;5201;48.776;9.128;2023-07-09T04:26:42;24.60;95.10
10312;DHT22;5201;48.776;9.128;2023-07-09T04:29:07;24.70;94.80
10312;DHT22;5201;48.776;9.128;2023-07-09T04:31:33;24.90;94.60
10312;DHT22;5201;48.776;9.128;2023-07-09T04:33:59;25.00;94.50
10312;DHT22;5201;48.776;9.128;2023-07-09T04:36:24;25.10;94.10
10312;DHT22;5201;48.776;9.128;2023-07-09T04:38:51;25.30;93.90
10312;DHT22;5201;48.776;9.128;2023-07-09T04:41:17;25.40;94.50
10312;DHT22;5201;48.776;9.128;2023-07-09T04:43:42;25.50;94.80
10312;DHT22;5201;48.776;9.128;2023-07-09T04:46:08;25.60;94.50
10312;DHT22;5201;48.776;9.128;2023-07-09T04:48:34;25.80;94.20
10312;DHT22;5201;48.776;9.128;2023-07-09T04:50:59;25.90;93.90
10312;DHT22;5201;48.776;9.128;2023-07-09T04:53:25;26.10;93.30
10312;DHT22;5201;48.776;9.128;2023-07-09T04:55:51;26.40;93.10
10312;DHT22;5201;48.776;9.128;2023-07-09T04:58:17;26.50;92.50
10312;DHT22;5201;48.776;9.128;2023-07-09T05:00:46;26.60;92.50
10312;DHT22;5201;48.776;9.128;2023-07-09T05:03:12;26.70;92.80
10312;DHT22;5201;48.776;9.128;2023-07-09T05:05:44;26.70;93.50
10312;DHT22;5201;48.776;9.128;2023-07-09T05:08:10;26.70;93.00
10312;DHT22;5201;48.776;9.128;2023-07-09T05:10:41;26.70;93.00
10312;DHT22;5201;48.776;9.128;2023-07-09T05:13:07;26.50;93.30
10312;DHT22;5201;48.776;9.128;2023-07-09T05:15:33;26.30;94.30
10312;DHT22;5201;48.776;9.128;2023-07-09T05:17:58;26.10;94.90
10312;DHT22;5201;48.776;9.128;2023-07-09T05:20:24;26.00;94.90
10312;DHT22;5201;48.776;9.128;2023-07-09T05:22:50;25.90;95.10
10312;DHT22;5201;48.776;9.128;2023-07-09T05:25:16;25.70;95.00
10312;DHT22;5201;48.776;9.128;2023-07-09T05:27:42;25.70;95.20
10312;DHT22;5201;48.776;9.128;2023-07-09T05:30:08;25.60;95.20
10312;DHT22;5201;48.776;9.128;2023-07-09T05:32:36;25.50;94.80
10312;DHT22;5201;48.776;9.128;2023-07-09T05:35:02;25.50;95.30
10312;DHT22;5201;48.776;9.128;2023-07-09T05:37:27;25.50;95.20
10312;DHT22;5201;48.776;9.128;2023-07-09T05:39:53;25.50;95.00
10312;DHT22;5201;48.776;9.128;2023-07-09T05:42:18;25.50;95.00
10312;DHT22;5201;48.776;9.128;2023-07-09T05:44:44;25.50;94.90
10312;DHT22;5201;48.776;9.128;2023-07-09T05:47:09;25.60;94.50
10312;DHT22;5201;48.776;9.128;2023-07-09T05:49:35;25.60;94.70
10312;DHT22;5201;48.776;9.128;2023-07-09T05:52:01;25.60;94.30
10312;DHT22;5201;48.776;9.128;2023-07-09T05:54:26;25.60;94.10
10312;DHT22;5201;48.776;9.128;2023-07-09T05:56:52;25.70;94.20
10312;DHT22;5201;48.776;9.128;2023-07-09T05:59:17;25.60;93.50
10312;DHT22;5201;48.776;9.128;2023-07-09T06:01:44;25.70;94.20
10312;DHT22;5201;48.776;9.128;2023-07-09T06:04:09;25.80;94.30
10312;DHT22;5201;48.776;9.128;2023-07-09T06:06:37;25.90;94.40
10312;DHT22;5201;48.776;9.128;2023-07-09T06:09:02;26.30;94.20
10312;DHT22;5201;48.776;9.128;2023-07-09T06:11:28;26.90;93.60
10312;DHT22;5201;48.776;9.128;2023-07-09T06:13:53;27.60;93.20
10312;DHT22;5201;48.776;9.128;2023-07-09T06:16:19;28.30;92.20
10312;DHT22;5201;48.776;9.128;2023-07-09T06:18:45;28.90;91.90
10312;DHT22;5201;48.776;9.128;2023-07-09T06:21:11;29.40;91.00
10312;DHT22;5201;48.776;9.128;2023-07-09T06:23:38;29.90;89.40
10312;DHT22;5201;48.776;9.128;2023-07-09T06:26:03;30.30;88.10
10312;DHT22;5201;48.776;9.128;2023-07-09T06:28:30;30.50;86.50
10312;DHT22;5201;48.776;9.128;2023-07-09T06:30:55;30.70;88.80
10312;DHT22;5201;48.776;9.128;2023-07-09T06:33:24;31.00;89.90
10312;DHT22;5201;48.776;9.128;2023-07-09T06:35:56;31.10;85.80
10312;DHT22;5201;48.776;9.128;2023-07-09T06:38:22;31.30;86.40
10312;DHT22;5201;48.776;9.128;2023-07-09T06:40:48;31.50;87.30
10312;DHT22;5201;48.776;9.128;2023-07-09T06:43:13;31.70;86.80
10312;DHT22;5201;48.776;9.128;2023-07-09T06:45:47;31.90;83.10
10312;DHT22;5201;48.776;9.128;2023-07-09T06:48:13;32.00;84.50
10312;DHT22;5201;48.776;9.128;2023-07-09T06:50:38;32.20;82.70
10312;DHT22;5201;48.776;9.128;2023-07-09T06:53:04;32.40;84.60
10312;DHT22;5201;48.776;9.128;2023-07-09T06:55:29;32.50;82.30
10312;DHT22;5201;48.776;9.128;2023-07-09T06:57:56;32.60;82.90
10312;DHT22;5201;48.776;9.128;2023-07-09T07:00:22;32.70;82.60
10312;DHT22;5201;48.776;9.128;2023-07-09T07:02:48;32.80;80.90
10312;DHT22;5201;48.776;9.128;2023-07-09T07:05:13;32.90;80.40
10312;DHT22;5201;48.776;9.128;2023-07-09T07:07:39;32.80;79.60
10312;DHT22;5201;48.776;9.128;2023-07-09T07:10:06;32.80;80.70
10312;DHT22;5201;48.776;9.128;2023-07-09T07:12:45;32.80;83.00
10312;DHT22;5201;48.776;9.128;2023-07-09T07:15:12;33.00;80.90
10312;DHT22;5201;48.776;9.128;2023-07-09T07:17:39;33.20;80.20
10312;DHT22;5201;48.776;9.128;2023-07-09T07:20:05;33.20;78.70
10312;DHT22;5201;48.776;9.128;2023-07-09T07:22:31;33.20;77.00
10312;DHT22;5201;48.776;9.128;2023-07-09T07:24:57;33.20;77.50
10312;DHT22;5201;48.776;9.128;2023-07-09T07:27:22;33.10;79.60
10312;DHT22;5201;48.776;9.128;2023-07-09T07:29:48;33.20;79.40
10312;DHT22;5201;48.776;9.128;2023-07-09T07:32:13;33.30;77.90
10312;DHT22;5201;48.776;9.128;2023-07-09T07:34:39;33.30;74.80
10312;DHT22;5201;48.776;9.128;2023-07-09T07:37:04;33.20;77.20
10312;DHT22;5201;48.776;9.128;2023-07-09T07:39:30;33.10;77.60
10312;DHT22;5201;48.776;9.128;2023-07-09T07:41:56;33.20;79.60
10312;DHT22;5201;48.776;9.128;2023-07-09T07:44:22;33.30;78.30
10312;DHT22;5201;48.776;9.128;2023-07-09T07:46:48;33.40;82.40
10312;DHT22;5201;48.776;9.128;2023-07-09T07:49:13;33.50;80.70
10312;DHT22;5201;48.776;9.128;2023-07-09T07:51:39;33.60;79.10
10312;DHT22;5201;48.776;9.128;2023-07-09T07:54:05;33.70;78.60
10312;DHT22;5201;48.776;9.128;2023-07-09T07:56:32;33.30;77.50
10312;DHT22;5201;48.776;9.128;2023-07-09T07:58:57;33.20;79.40
10312;DHT22;5201;48.776;9.128;2023-07-09T08:01:23;33.30;80.40
10312;DHT22;5201;48.776;9.128;2023-07-09T08:03:49;33.30;78.90
10312;DHT22;5201;48.776;9.128;2023-07-09T08:06:14;33.10;82.00
10312;DHT22;5201;48.776;9.128;2023-07-09T08:08:40;33.30;80.50
10312;DHT22;5201;48.776;9.128;2023-07-09T08:11:06;33.10;78.80
10312;DHT22;5201;48.776;9.128;2023-07-09T08:13:34;33.10;79.40
10312;DHT22;5201;48.776;9.128;2023-07-09T08:15:59;33.20;80.70
10312;DHT22;5201;48.776;9.128;2023-07-09T08:18:25;33.40;78.20
10312;DHT22;5201;48.776;9.128;2023-07-09T08:20:51;33.50;81.20
10312;DHT22;5201;48.776;9.128;2023-07-09T08:23:16;33.50;78.80
10312;DHT22;5201;48.776;9.128;2023-07-09T08:25:42;33.70;80.00
10312;DHT22;5201;48.776;9.128;2023-07-09T08:28:07;33.80;79.00
10312;DHT22;5201;48.776;9.128;2023-07-09T08:30:34;33.80;79.80
10312;DHT22;5201;48.776;9.128;2023-07-09T08:33:01;33.90;79.80
10312;DHT22;5201;48.776;9.128;2023-07-09T08:35:26;34.00;77.60
10312;DHT22;5201;48.776;9.128;2023-07-09T08:37:52;34.00;77.70
10312;DHT22;5201;48.776;9.128;2023-07-09T08:40:18;34.00;78.50
10312;DHT22;5201;48.776;9.128;2023-07-09T08:42:46;34.20;78.50
10312;DHT22;5201;48.776;9.128;2023-07-09T08:45:24;34.30;78.10
10312;DHT22;5201;48.776;9.128;2023-07-09T08:48:06;34.40;76.50
10312;DHT22;5201;48.776;9.128;2023-07-09T08:50:45;34.60;76.40
10312;DHT22;5201;48.776;9.128;2023-07-09T08:53:18;34.70;78.20
10312;DHT22;5201;48.776;9.128;2023-07-09T08:55:47;34.70;75.10
10312;DHT22;5201;48.776;9.128;2023-07-09T08:58:33;34.80;77.10
10312;DHT22;5201;48.776;9.128;2023-07-09T09:01:03;35.00;77.90
10312;DHT22;5201;48.776;9.128;2023-07-09T09:03:38;35.00;75.00
10312;DHT22;5201;48.776;9.128;2023-07-09T09:08:58;35.70;75.40
10312;DHT22;5201;48.776;9.128;2023-07-09T09:11:43;35.90;73.60
10312;DHT22;5201;48.776;9.128;2023-07-09T09:14:34;35.90;72.90
10312;DHT22;5201;48.776;9.128;2023-07-09T09:17:02;35.50;72.90
10312;DHT22;5201;48.776;9.128;2023-07-09T09:19:32;35.40;71.20
10312;DHT22;5201;48.776;9.128;2023-07-09T09:22:07;35.50;72.60
10312;DHT22;5201;48.776;9.128;2023-07-09T09:24:41;35.80;74.00
10312;DHT22;5201;48.776;9.128;2023-07-09T09:27:11;36.10;74.80
10312;DHT22;5201;48.776;9.128;2023-07-09T09:29:36;36.30;71.50
10312;DHT22;5201;48.776;9.128;2023-07-09T09:32:16;36.30;70.90
10312;DHT22;5201;48.776;9.128;2023-07-09T09:34:43;36.40;72.10
10312;DHT22;5201;48.776;9.128;2023-07-09T09:37:12;36.40;72.00
10312;DHT22;5201;48.776;9.128;2023-07-09T09:39:38;36.70;70.40
10312;DHT22;5201;48.776;9.128;2023-07-09T09:42:10;36.70;67.90
10312;DHT22;5201;48.776;9.128;2023-07-09T09:44:43;36.80;69.60
10312;DHT22;5201;48.776;9.128;2023-07-09T09:47:10;37.00;70.10
10312;DHT22;5201;48.776;9.128;2023-07-09T09:49:43;37.30;69.00
10312;DHT22;5201;48.776;9.128;2023-07-09T09:52:14;37.40;68.70
10312;DHT22;5201;48.776;9.128;2023-07-09T09:54:43;37.50;65.80
10312;DHT22;5201;48.776;9.128;2023-07-09T09:57:17;37.60;64.30
10312;DHT22;5201;48.776;9.128;2023-07-09T09:59:45;37.50;65.70
10312;DHT22;5201;48.776;9.128;2023-07-09T10:02:23;37.70;62.00
10312;DHT22;5201;48.776;9.128;2023-07-09T10:04:50;37.20;61.30
10312;DHT22;5201;48.776;9.128;2023-07-09T10:09:53;37.30;59.10
10312;DHT22;5201;48.776;9.128;2023-07-09T10:17:37;37.30;60.10
10312;DHT22;5201;48.776;9.128;2023-07-09T10:20:22;37.00;61.30
10312;DHT22;5201;48.776;9.128;2023-07-09T10:23:01;37.30;60.60
10312;DHT22;5201;48.776;9.128;2023-07-09T10:25:48;37.50;60.80
10312;DHT22;5201;48.776;9.128;2023-07-09T10:39:52;36.50;58.50
10312;DHT22;5201;48.776;9.128;2023-07-09T10:42:29;36.40;60.90
10312;DHT22;5201;48.776;9.128;2023-07-09T10:45:09;36.20;58.90
10312;DHT22;5201;48.776;9.128;2023-07-09T10:47:39;36.20;59.00
10312;DHT22;5201;48.776;9.128;2023-07-09T10:50:14;36.50;59.60
10312;DHT22;5201;48.776;9.128;2023-07-09T10:52:45;36.80;57.40
10312;DHT22;5201;48.776;9.128;2023-07-09T10:55:16;36.80;58.70
10312;DHT22;5201;48.776;9.128;2023-07-09T10:57:54;37.10;57.90
10312;DHT22;5201;48.776;9.128;2023-07-09T11:00:32;37.30;59.70
10312;DHT22;5201;48.776;9.128;2023-07-09T11:03:01;36.90;55.80
10312;DHT22;5201;48.776;9.128;2023-07-09T11:05:29;36.50;55.50
10312;DHT22;5201;48.776;9.128;2023-07-09T11:08:05;36.60;57.60
10312;DHT22;5201;48.776;9.128;2023-07-09T11:10:36;37.00;58.30
10312;DHT22;5201;48.776;9.128;2023-07-09T11:13:11;37.10;59.40
10312;DHT22;5201;48.776;9.128;2023-07-09T11:15:42;37.40;58.90
10312;DHT22;5201;48.776;9.128;2023-07-09T11:18:17;37.30;56.50
10312;DHT22;5201;48.776;9.128;2023-07-09T11:20:45;37.20;56.70
10312;DHT22;5201;48.776;9.128;2023-07-09T11:23:20;36.90;56.00
10312;DHT22;5201;48.776;9.128;2023-07-09T11:26:08;36.80;55.80
10312;DHT22;5201;48.776;9.128;2023-07-09T11:28:38;36.20;56.80
10312;DHT22;5201;48.776;9.128;2023-07-09T11:31:18;36.40;57.80
10312;DHT22;5201;48.776;9.128;2023-07-09T11:36:34;36.50;55.70
10312;DHT22;5201;48.776;9.128;2023-07-09T11:39:00;36.80;56.10
10312;DHT22;5201;48.776;9.128;2023-07-09T11:41:43;36.90;53.70
10312;DHT22;5201;48.776;9.128;2023-07-09T11:49:54;37.00;52.50
10312;DHT22;5201;48.776;9.128;2023-07-09T11:52:45;36.70;53.30
10312;DHT22;5201;48.776;9.128;2023-07-09T11:55:33;36.90;53.00
10312;DHT22;5201;48.776;9.128;2023-07-09T11:58:03;37.10;51.60
10312;DHT22;5201;48.776;9.128;2023-07-09T12:00:37;37.00;52.10
10312;DHT22;5201;48.776;9.128;2023-07-09T12:03:05;37.00;51.50
10312;DHT22;5201;48.776;9.128;2023-07-09T12:05:31;36.70;50.30
10312;DHT22;5201;48.776;9.128;2023-07-09T12:07:58;36.60;51.90
10312;DHT22;5201;48.776;9.128;2023-07-09T12:10:27;36.30;52.30
10312;DHT22;5201;48.776;9.128;2023-07-09T12:12:58;36.30;53.40
10312;DHT22;5201;48.776;9.128;2023-07-09T12:15:28;36.20;53.30
10312;DHT22;5201;48.776;9.128;2023-07-09T12:17:57;36.20;52.20
10312;DHT22;5201;48.776;9.128;2023-07-09T12:20:23;36.10;52.30
10312;DHT22;5201;48.776;9.128;2023-07-09T12:22:49;35.90;52.50
10312;DHT22;5201;48.776;9.128;2023-07-09T12:25:27;35.90;51.20
10312;DHT22;5201;48.776;9.128;2023-07-09T12:27:54;35.80;52.30
10312;DHT22;5201;48.776;9.128;2023-07-09T12:30:20;35.80;51.30
10312;DHT22;5201;48.776;9.128;2023-07-09T12:32:47;35.70;52.60
10312;DHT22;5201;48.776;9.128;2023-07-09T12:35:15;35.50;53.20
10312;DHT22;5201;48.776;9.128;2023-07-09T12:37:43;35.30;54.10
10312;DHT22;5201;48.776;9.128;2023-07-09T12:40:20;35.10;54.70
10312;DHT22;5201;48.776;9.128;2023-07-09T12:42:47;35.00;54.20
10312;DHT22;5201;48.776;9.128;2023-07-09T12:45:17;34.90;55.30
10312;DHT22;5201;48.776;9.128;2023-07-09T12:47:48;35.00;54.80
10312;DHT22;5201;48.776;9.128;2023-07-09T12:50:34;35.00;54.40
10312;DHT22;5201;48.776;9.128;2023-07-09T12:53:13;34.90;54.90
10312;DHT22;5201;48.776;9.128;2023-07-09T12:55:41;34.80;53.90
10312;DHT22;5201;48.776;9.128;2023-07-09T12:58:10;34.80;55.10
10312;DHT22;5201;48.776;9.128;2023-07-09T13:00:37;34.80;55.00
10312;DHT22;5201;48.776;9.128;2023-07-09T13:03:03;34.80;54.20
10312;DHT22;5201;48.776;9.128;2023-07-09T13:05:37;34.80;55.10
10312;DHT22;5201;48.776;9.128;2023-07-09T13:08:02;34.80;55.50
10312;DHT22;5201;48.776;9.128;2023-07-09T13:10:30;34.90;55.40
10312;DHT22;5201;48.776;9.128;2023-07-09T13:13:04;35.00;57.50
10312;DHT22;5201;48.776;9.128;2023-07-09T13:15:41;35.10;56.20
10312;DHT22;5201;48.776;9.128;2023-07-09T13:18:10;35.00;56.80
10312;DHT22;5201;48.776;9.128;2023-07-09T13:20:39;35.00;55.20
10312;DHT22;5201;48.776;9.128;2023-07-09T13:23:15;34.80;56.40
10312;DHT22;5201;48.776;9.128;2023-07-09T13:25:41;34.60;56.20
10312;DHT22;5201;48.776;9.128;2023-07-09T13:28:30;34.40;56.00
10312;DHT22;5201;48.776;9.128;2023-07-09T13:31:10;34.40;56.90
10312;DHT22;5201;48.776;9.128;2023-07-09T13:33:36;34.40;56.80
10312;DHT22;5201;48.776;9.128;2023-07-09T13:36:03;34.30;56.40
10312;DHT22;5201;48.776;9.128;2023-07-09T13:38:29;34.30;56.80
10312;DHT22;5201;48.776;9.128;2023-07-09T13:40:57;34.40;56.30
10312;DHT22;5201;48.776;9.128;2023-07-09T13:43:31;34.40;57.80
10312;DHT22;5201;48.776;9.128;2023-07-09T13:45:59;34.60;56.80
10312;DHT22;5201;48.776;9.128;2023-07-09T13:48:26;34.80;55.30
10312;DHT22;5201;48.776;9.128;2023-07-09T13:50:53;34.80;55.10
10312;DHT22;5201;48.776;9.128;2023-07-09T13:53:22;34.90;55.40
10312;DHT22;5201;48.776;9.128;2023-07-09T13:55:49;34.90;55.20
10312;DHT22;5201;48.776;9.128;2023-07-09T13:58:17;34.80;56.30
10312;DHT22;5201;48.776;9.128;2023-07-09T14:00:44;34.80;57.10
10312;DHT22;5201;48.776;9.128;2023-07-09T14:03:25;34.80;56.70
10312;DHT22;5201;48.776;9.128;2023-07-09T14:05:52;34.60;56.80
10312;DHT22;5201;48.776;9.128;2023-07-09T14:08:17;34.60;57.20
10312;DHT22;5201;48.776;9.128;2023-07-09T14:10:45;34.60;56.70
10312;DHT22;5201;48.776;9.128;2023-07-09T14:13:15;34.80;54.70
10312;DHT22;5201;48.776;9.128;2023-07-09T14:15:42;34.90;54.50
10312;DHT22;5201;48.776;9.128;2023-07-09T14:18:16;34.90;54.00
10312;DHT22;5201;48.776;9.128;2023-07-09T14:20:43;34.90;54.30
10312;DHT22;5201;48.776;9.128;2023-07-09T14:23:14;35.00;54.60
10312;DHT22;5201;48.776;9.128;2023-07-09T14:25:41;35.10;54.50
10312;DHT22;5201;48.776;9.128;2023-07-09T14:28:18;35.10;56.70
10312;DHT22;5201;48.776;9.128;2023-07-09T14:30:45;34.90;57.20
10312;DHT22;5201;48.776;9.128;2023-07-09T14:33:14;35.00;57.70
10312;DHT22;5201;48.776;9.128;2023-07-09T14:35:40;34.90;57.40
10312;DHT22;5201;48.776;9.128;2023-07-09T14:40:44;34.60;57.80
10312;DHT22;5201;48.776;9.128;2023-07-09T14:43:11;34.50;57.10
10312;DHT22;5201;48.776;9.128;2023-07-09T14:45:36;34.70;57.40
10312;DHT22;5201;48.776;9.128;2023-07-09T14:48:13;34.90;56.70
10312;DHT22;5201;48.776;9.128;2023-07-09T14:50:41;34.90;57.40
10312;DHT22;5201;48.776;9.128;2023-07-09T14:53:32;35.00;57.20
10312;DHT22;5201;48.776;9.128;2023-07-09T14:55:57;34.90;56.60
10312;DHT22;5201;48.776;9.128;2023-07-09T14:58:23;34.90;56.30
10312;DHT22;5201;48.776;9.128;2023-07-09T15:00:50;34.90;55.50
10312;DHT22;5201;48.776;9.128;2023-07-09T15:03:24;34.90;56.60
10312;DHT22;5201;48.776;9.128;2023-07-09T15:05:51;34.90;56.50
10312;DHT22;5201;48.776;9.128;2023-07-09T15:08:19;34.90;55.90
10312;DHT22;5201;48.776;9.128;2023-07-09T15:10:47;35.00;56.00
10312;DHT22;5201;48.776;9.128;2023-07-09T15:13:19;35.00;55.60
10312;DHT22;5201;48.776;9.128;2023-07-09T15:15:45;35.00;55.40
10312;DHT22;5201;48.776;9.128;2023-07-09T15:18:13;34.90;55.00
10312;DHT22;5201;48.776;9.128;2023-07-09T15:20:39;34.80;55.40
10312;DHT22;5201;48.776;9.128;2023-07-09T15:23:05;34.80;55.60
10312;DHT22;5201;48.776;9.128;2023-07-09T15:25:31;34.60;55.60
10312;DHT22;5201;48.776;9.128;2023-07-09T15:27:57;34.60;56.30
10312;DHT22;5201;48.776;9.128;2023-07-09T15:30:29;34.50;55.80
10312;DHT22;5201;48.776;9.128;2023-07-09T15:32:59;34.60;56.10
10312;DHT22;5201;48.776;9.128;2023-07-09T15:35:31;34.70;56.00
10312;DHT22;5201;48.776;9.128;2023-07-09T15:37:57;34.70;55.80
10312;DHT22;5201;48.776;9.128;2023-07-09T15:40:27;34.60;56.30
10312;DHT22;5201;48.776;9.128;2023-07-09T15:42:58;34.70;56.10
10312;DHT22;5201;48.776;9.128;2023-07-09T15:45:24;34.70;55.20
10312;DHT22;5201;48.776;9.128;2023-07-09T15:47:51;34.70;56.10
10312;DHT22;5201;48.776;9.128;2023-07-09T15:50:22;34.70;55.90
10312;DHT22;5201;48.776;9.128;2023-07-09T15:52:49;34.70;56.70
10312;DHT22;5201;48.776;9.128;2023-07-09T15:55:20;34.70;55.40
10312;DHT22;5201;48.776;9.128;2023-07-09T15:57:47;34.70;57.00
10312;DHT22;5201;48.776;9.128;2023-07-09T16:00:25;34.60;54.80
10312;DHT22;5201;48.776;9.128;2023-07-09T16:02:53;34.70;55.30
10312;DHT22;5201;48.776;9.128;2023-07-09T16:05:26;34.80;56.10
10312;DHT22;5201;48.776;9.128;2023-07-09T16:07:54;34.80;55.20
10312;DHT22;5201;48.776;9.128;2023-07-09T16:10:21;34.90;55.80
10312;DHT22;5201;48.776;9.128;2023-07-09T16:12:48;34.90;56.80
10312;DHT22;5201;48.776;9.128;2023-07-09T16:15:19;35.00;55.80
10312;DHT22;5201;48.776;9.128;2023-07-09T16:17:45;35.00;55.00
10312;DHT22;5201;48.776;9.128;2023-07-09T16:20:14;35.00;54.80
10312;DHT22;5201;48.776;9.128;2023-07-09T16:22:41;34.90;56.30
10312;DHT22;5201;48.776;9.128;2023-07-09T16:25:22;34.90;56.50
10312;DHT22;5201;48.776;9.128;2023-07-09T16:27:48;34.80;56.60